Spicewood's Hourly Summary for Sunday, May 13, 2018
Hour Temp
(f)
RH
(%)
Solar Rad.
(MJ/m2)
Rainfall
(in)
Wind
(mph)
5/13/2018 12:00 AM 77 80 0 0 5.54
5/13/2018 1:00 AM 75 82 0 0 5.98
5/13/2018 2:00 AM 75 83 0 0 4.9
5/13/2018 3:00 AM 74 83 0 0 4.25
5/13/2018 4:00 AM 74 83 0 0 4.43
5/13/2018 5:00 AM 73 85 0 0 3.53
5/13/2018 6:00 AM 72 90 0 0 2.87
5/13/2018 7:00 AM 71 91 0.01 0 2.57
5/13/2018 8:00 AM 74 91 0.16 0 3.61
5/13/2018 9:00 AM 77 84 0.62 0 4.02
5/13/2018 10:00 AM 79 75 1.08 0 6.31
5/13/2018 11:00 AM 81 67 0.99 0 6.55
5/13/2018 12:00 PM 85 62 2.08 0 6.12
5/13/2018 1:00 PM 85 55 3.01 0 7.4
5/13/2018 2:00 PM 86 52 2.23 0 7.72
5/13/2018 3:00 PM 88 49 2.03 0 7.47
5/13/2018 4:00 PM 88 47 2.47 0 7.34
5/13/2018 5:00 PM 88 47 1.13 0 7.81
5/13/2018 6:00 PM 88 44 1.25 0 6.47
5/13/2018 7:00 PM 88 47 0.97 0 5.76
5/13/2018 8:00 PM 87 53 0.27 0 5.34
5/13/2018 9:00 PM 84 59 0.01 0 3.82
5/13/2018 10:00 PM 82 63 0 0 5.72
5/13/2018 11:00 PM 80 70 0 0 8.19
Data Summary 80 68 18.31 0.00 5.57